createdAt,value
2022-12-29T00:01:42.467Z,6.02
2022-12-29T00:04:15.159Z,6.11
2022-12-29T00:06:43.511Z,6.05
2022-12-29T00:09:13.424Z,5.98
2022-12-29T00:11:41.646Z,5.99
2022-12-29T00:14:29.768Z,5.90
2022-12-29T00:16:58.840Z,5.90
2022-12-29T00:19:43.930Z,5.88
2022-12-29T00:22:30.475Z,5.87
2022-12-29T00:25:06.373Z,5.85
2022-12-29T00:27:52.313Z,5.86
2022-12-29T00:30:40.275Z,5.88
2022-12-29T00:33:30.307Z,5.87
2022-12-29T00:36:23.262Z,5.76
2022-12-29T00:39:12.992Z,5.83
2022-12-29T00:42:01.261Z,5.83
2022-12-29T00:44:27.877Z,5.83
2022-12-29T00:46:55.668Z,5.80
2022-12-29T00:49:31.660Z,5.80
2022-12-29T00:52:04.442Z,5.82
2022-12-29T00:54:33.747Z,5.80
2022-12-29T00:57:01.106Z,5.83
2022-12-29T00:59:27.848Z,5.78
2022-12-29T01:01:55.958Z,5.83
2022-12-29T01:04:25.336Z,5.83
2022-12-29T01:06:52.088Z,5.84
2022-12-29T01:09:38.026Z,5.80
2022-12-29T01:12:05.782Z,5.80
2022-12-29T01:14:32.443Z,5.78
2022-12-29T01:16:59.392Z,5.81
2022-12-29T01:19:26.377Z,5.83
2022-12-29T01:21:53.267Z,5.79
2022-12-29T01:24:20.812Z,5.79
2022-12-29T01:26:49.667Z,5.80
2022-12-29T01:29:16.320Z,5.79
2022-12-29T01:31:44.002Z,5.79
2022-12-29T01:34:10.587Z,5.71
2022-12-29T01:36:37.152Z,5.72
2022-12-29T01:39:03.932Z,5.68
2022-12-29T01:41:30.826Z,5.67
2022-12-29T01:44:00.261Z,5.67
2022-12-29T01:46:31.763Z,5.66
2022-12-29T01:49:06.585Z,5.67
2022-12-29T01:51:36.951Z,5.67
2022-12-29T01:54:06.749Z,5.65
2022-12-29T01:56:34.154Z,5.61
2022-12-29T01:59:08.252Z,5.58
2022-12-29T02:01:34.862Z,5.60
2022-12-29T02:04:01.945Z,5.61
2022-12-29T02:06:38.586Z,5.57
2022-12-29T02:09:05.125Z,5.58
2022-12-29T02:11:32.088Z,5.60
2022-12-29T02:14:01.954Z,5.59
2022-12-29T02:16:34.587Z,5.60
2022-12-29T02:19:16.779Z,5.55
2022-12-29T02:21:56.683Z,5.56
2022-12-29T02:24:48.592Z,5.58
2022-12-29T02:27:33.468Z,5.57
2022-12-29T02:30:12.707Z,5.60
2022-12-29T02:32:51.541Z,5.56
2022-12-29T02:35:31.835Z,5.60
2022-12-29T02:38:11.949Z,5.62
2022-12-29T02:40:59.352Z,5.62
2022-12-29T02:43:40.659Z,5.57
2022-12-29T02:46:32.101Z,5.60
2022-12-29T02:49:17.210Z,5.63
2022-12-29T02:52:03.350Z,5.59
2022-12-29T02:54:42.413Z,5.57
2022-12-29T02:57:24.135Z,5.60
2022-12-29T03:00:01.539Z,5.60
2022-12-29T03:02:53.193Z,5.66
2022-12-29T03:05:49.383Z,5.64
2022-12-29T03:08:58.048Z,5.62
2022-12-29T03:11:47.470Z,5.62
2022-12-29T03:14:32.738Z,5.61
2022-12-29T03:17:03.119Z,5.56
2022-12-29T03:19:34.006Z,5.52
2022-12-29T03:22:28.176Z,5.55
2022-12-29T03:25:02.945Z,5.54
2022-12-29T03:27:44.444Z,5.53
2022-12-29T03:30:13.591Z,5.53
2022-12-29T03:32:50.606Z,5.57
2022-12-29T03:35:19.593Z,5.58
2022-12-29T03:38:12.722Z,5.58
2022-12-29T03:40:42.641Z,5.60
2022-12-29T03:43:11.711Z,5.59
2022-12-29T03:45:38.267Z,5.57
2022-12-29T03:48:05.025Z,5.53
2022-12-29T03:50:31.733Z,5.48
2022-12-29T03:52:58.280Z,5.46
2022-12-29T03:55:24.860Z,5.47
2022-12-29T03:57:51.461Z,5.45
2022-12-29T04:00:21.612Z,5.43
2022-12-29T04:02:49.740Z,5.45
2022-12-29T04:05:16.694Z,5.41
2022-12-29T04:07:43.318Z,5.40
2022-12-29T04:10:10.267Z,5.39
2022-12-29T04:12:36.843Z,5.37
2022-12-29T04:15:03.999Z,5.36
2022-12-29T04:17:30.578Z,5.35
2022-12-29T04:20:17.104Z,5.34
2022-12-29T04:22:43.938Z,5.35
2022-12-29T04:25:10.792Z,5.34
2022-12-29T04:27:37.329Z,5.42
2022-12-29T04:30:07.370Z,5.43
2022-12-29T04:32:33.929Z,5.46
2022-12-29T04:35:02.569Z,5.44
2022-12-29T04:37:29.120Z,5.42
2022-12-29T04:39:55.683Z,5.43
2022-12-29T04:42:22.284Z,5.42
2022-12-29T04:44:48.863Z,5.47
2022-12-29T04:47:15.391Z,5.48
2022-12-29T04:49:41.931Z,5.52
2022-12-29T04:52:09.867Z,5.53
2022-12-29T04:54:43.589Z,5.53
2022-12-29T04:57:10.116Z,5.53
2022-12-29T04:59:36.695Z,5.55
2022-12-29T05:02:03.328Z,5.58
2022-12-29T05:04:29.959Z,5.61
2022-12-29T05:06:56.507Z,5.65
2022-12-29T05:09:23.185Z,5.64
2022-12-29T05:11:50.070Z,5.64
2022-12-29T05:14:16.705Z,5.69
2022-12-29T05:16:45.216Z,5.69
2022-12-29T05:19:11.785Z,5.72
2022-12-29T05:21:38.380Z,5.72
2022-12-29T05:24:05.512Z,5.81
2022-12-29T05:26:32.099Z,5.85
2022-12-29T05:28:58.884Z,5.84
2022-12-29T05:31:25.774Z,5.82
2022-12-29T05:33:52.492Z,5.82
2022-12-29T05:36:19.136Z,5.82
2022-12-29T05:38:45.875Z,5.80
2022-12-29T05:41:12.397Z,5.81
2022-12-29T05:43:38.959Z,5.79
2022-12-29T05:46:07.061Z,5.77
2022-12-29T05:48:37.853Z,5.78
2022-12-29T05:51:07.811Z,5.79
2022-12-29T05:53:34.474Z,5.79
2022-12-29T05:56:01.095Z,5.78
2022-12-29T05:58:28.508Z,5.78
2022-12-29T06:00:55.196Z,5.76
2022-12-29T06:03:21.896Z,5.79
2022-12-29T06:05:48.684Z,5.77
2022-12-29T06:08:17.378Z,5.81
2022-12-29T06:10:44.366Z,5.83
2022-12-29T06:13:15.109Z,5.82
2022-12-29T06:15:42.222Z,5.83
2022-12-29T06:18:08.954Z,5.84
2022-12-29T06:20:35.647Z,5.84
2022-12-29T06:23:02.320Z,5.83
2022-12-29T06:25:31.869Z,5.84
2022-12-29T06:27:59.012Z,5.82
2022-12-29T06:30:27.265Z,5.87
2022-12-29T06:32:53.969Z,5.82
2022-12-29T06:35:20.720Z,5.85
2022-12-29T06:37:47.461Z,5.80
2022-12-29T06:40:14.304Z,5.85
2022-12-29T06:42:41.150Z,5.88
2022-12-29T06:45:08.446Z,5.88
2022-12-29T06:47:36.303Z,5.90
2022-12-29T06:50:03.988Z,5.91
2022-12-29T06:52:30.777Z,5.88
2022-12-29T06:55:29.949Z,5.88
2022-12-29T06:58:02.450Z,5.88
2022-12-29T07:00:29.221Z,5.95
2022-12-29T07:02:57.353Z,5.87
2022-12-29T07:05:24.240Z,5.91
2022-12-29T07:07:50.891Z,5.89
2022-12-29T07:10:17.822Z,5.90
2022-12-29T07:12:44.863Z,5.90
2022-12-29T07:15:11.731Z,5.92
2022-12-29T07:17:38.473Z,5.90
2022-12-29T07:20:05.866Z,5.94
2022-12-29T07:22:32.590Z,5.90
2022-12-29T07:24:59.234Z,5.97
2022-12-29T07:27:25.916Z,5.99
2022-12-29T07:29:54.948Z,5.94
2022-12-29T07:32:21.687Z,6.02
2022-12-29T07:34:50.569Z,6.03
2022-12-29T07:37:21.389Z,6.01
2022-12-29T07:39:49.344Z,6.08
2022-12-29T07:42:15.957Z,6.07
2022-12-29T07:44:44.881Z,6.11
2022-12-29T07:47:11.663Z,6.10
2022-12-29T07:49:38.354Z,6.12
2022-12-29T07:52:05.209Z,6.07
2022-12-29T07:54:32.088Z,6.12
2022-12-29T07:57:01.090Z,6.11
2022-12-29T07:59:28.028Z,6.15
2022-12-29T08:01:54.665Z,6.17
2022-12-29T08:04:21.409Z,6.22
2022-12-29T08:06:52.471Z,6.21
2022-12-29T08:09:22.620Z,6.25
2022-12-29T08:11:51.159Z,6.24
2022-12-29T08:14:17.771Z,6.27
2022-12-29T08:16:47.127Z,6.25
2022-12-29T08:19:14.356Z,6.28
2022-12-29T08:21:41.568Z,6.22
2022-12-29T08:24:09.751Z,6.35
2022-12-29T08:26:36.441Z,6.29
2022-12-29T08:29:03.156Z,6.41
2022-12-29T08:31:29.925Z,6.37
2022-12-29T08:33:56.570Z,6.35
2022-12-29T08:36:23.243Z,6.30
2022-12-29T08:38:49.900Z,6.29
2022-12-29T08:41:16.436Z,6.30
2022-12-29T08:43:47.101Z,6.30
2022-12-29T08:46:14.225Z,6.31
2022-12-29T08:48:40.898Z,6.30
2022-12-29T08:51:08.742Z,6.38
2022-12-29T08:53:35.679Z,6.31
2022-12-29T08:56:07.738Z,6.40
2022-12-29T08:58:34.668Z,6.41
2022-12-29T09:01:01.930Z,6.40
2022-12-29T09:06:28.723Z,6.61
2022-12-29T09:08:56.476Z,6.49
2022-12-29T09:11:29.199Z,6.47
2022-12-29T09:13:56.006Z,6.57
2022-12-29T09:16:24.217Z,6.62
2022-12-29T09:18:51.640Z,6.60
2022-12-29T09:21:18.344Z,6.64
2022-12-29T09:23:44.929Z,6.62
2022-12-29T09:26:11.688Z,6.61
2022-12-29T09:28:39.689Z,6.66
2022-12-29T09:31:06.783Z,6.67
2022-12-29T09:33:36.362Z,6.67
2022-12-29T09:36:03.687Z,6.72
2022-12-29T09:38:32.780Z,6.87
2022-12-29T09:41:16.174Z,6.97
2022-12-29T09:44:07.681Z,6.91
2022-12-29T09:46:50.275Z,6.90
2022-12-29T09:49:46.153Z,6.86
2022-12-29T09:52:43.889Z,6.91
2022-12-29T09:55:17.415Z,6.93
2022-12-29T09:57:59.819Z,6.96
2022-12-29T10:00:36.727Z,7.00
2022-12-29T10:03:22.437Z,7.03
2022-12-29T10:06:11.917Z,7.08
2022-12-29T10:08:51.409Z,7.10
2022-12-29T10:11:29.097Z,7.17
2022-12-29T10:14:12.260Z,7.21
2022-12-29T10:17:00.569Z,7.18
2022-12-29T10:19:48.885Z,7.26
2022-12-29T10:22:34.310Z,7.28
2022-12-29T10:25:13.753Z,7.37
2022-12-29T10:27:41.392Z,7.38
2022-12-29T10:30:13.637Z,7.50
2022-12-29T10:33:05.528Z,7.54
2022-12-29T10:35:38.282Z,7.36
2022-12-29T10:38:44.289Z,7.51
2022-12-29T10:41:25.602Z,7.55
2022-12-29T10:43:55.582Z,7.54
2022-12-29T10:46:25.853Z,7.70
2022-12-29T10:48:52.665Z,7.68
2022-12-29T10:51:22.081Z,7.69
2022-12-29T10:54:28.894Z,7.72
2022-12-29T10:57:11.282Z,7.79
2022-12-29T10:59:40.657Z,7.74
2022-12-29T11:02:33.552Z,7.80
2022-12-29T11:05:11.936Z,7.80
2022-12-29T11:07:38.504Z,7.81
2022-12-29T11:10:24.163Z,7.83
2022-12-29T11:12:59.764Z,7.83
2022-12-29T11:15:26.702Z,7.76
2022-12-29T11:17:57.239Z,7.83
2022-12-29T11:20:36.174Z,7.83
2022-12-29T11:23:04.775Z,7.90
2022-12-29T11:25:31.688Z,7.99
2022-12-29T11:27:58.215Z,8.07
2022-12-29T11:30:30.272Z,8.06
2022-12-29T11:32:57.323Z,8.00
2022-12-29T11:35:34.306Z,7.90
2022-12-29T11:38:01.434Z,7.97
2022-12-29T11:40:29.580Z,7.94
2022-12-29T11:43:03.648Z,7.95
2022-12-29T11:45:34.175Z,7.94
2022-12-29T11:48:14.753Z,7.85
2022-12-29T11:50:51.634Z,7.83
2022-12-29T11:53:46.768Z,7.83
2022-12-29T11:56:24.125Z,7.85
2022-12-29T11:58:51.619Z,7.85
2022-12-29T12:01:21.640Z,7.84
2022-12-29T12:04:02.720Z,7.85
2022-12-29T12:06:34.076Z,7.87
2022-12-29T12:09:15.380Z,7.82
2022-12-29T12:11:45.547Z,7.86
2022-12-29T12:14:38.343Z,7.85
2022-12-29T12:17:19.058Z,7.88
2022-12-29T12:20:26.587Z,7.85
2022-12-29T12:23:24.402Z,7.90
2022-12-29T12:26:15.455Z,7.89
2022-12-29T12:29:06.881Z,7.84
2022-12-29T12:31:33.461Z,7.86
2022-12-29T12:34:12.416Z,7.94
2022-12-29T12:37:00.164Z,7.89
2022-12-29T12:39:51.118Z,7.93
2022-12-29T12:42:26.243Z,7.93
2022-12-29T12:45:01.962Z,7.95
2022-12-29T12:48:08.321Z,7.95
2022-12-29T12:50:58.162Z,7.96
2022-12-29T12:53:42.337Z,7.98
2022-12-29T12:56:59.375Z,8.00
2022-12-29T13:00:13.013Z,8.02
2022-12-29T13:02:45.646Z,8.04
2022-12-29T13:05:33.676Z,8.08
2022-12-29T13:08:40.052Z,8.07
2022-12-29T13:11:46.440Z,8.09
2022-12-29T13:14:24.824Z,8.13
2022-12-29T13:17:17.076Z,8.13
2022-12-29T13:19:56.271Z,8.15
2022-12-29T13:22:32.687Z,8.18
2022-12-29T13:25:21.049Z,8.19
2022-12-29T13:27:57.261Z,8.14
2022-12-29T13:30:29.468Z,8.16
2022-12-29T13:33:21.856Z,8.17
2022-12-29T13:36:07.518Z,8.12
2022-12-29T13:38:52.656Z,8.16
2022-12-29T13:41:44.324Z,8.12
2022-12-29T13:44:18.065Z,8.04
2022-12-29T13:46:47.537Z,7.96
2022-12-29T13:49:27.169Z,7.83
2022-12-29T13:52:11.473Z,7.86
2022-12-29T13:54:46.032Z,7.84
2022-12-29T13:57:41.077Z,7.78
2022-12-29T14:00:20.740Z,7.75
2022-12-29T14:02:47.480Z,7.73
2022-12-29T14:05:35.556Z,7.70
2022-12-29T14:08:13.056Z,7.72
2022-12-29T14:10:47.307Z,7.69
2022-12-29T14:13:22.374Z,7.69
2022-12-29T14:15:54.967Z,7.74
2022-12-29T14:18:26.626Z,7.72
2022-12-29T14:20:55.306Z,7.74
2022-12-29T14:23:38.971Z,7.76
2022-12-29T14:26:05.490Z,7.77
2022-12-29T14:28:34.009Z,7.72
2022-12-29T14:31:02.558Z,7.68
2022-12-29T14:33:32.184Z,7.67
2022-12-29T14:36:36.923Z,7.65
2022-12-29T14:39:04.344Z,7.63
2022-12-29T14:41:34.431Z,7.65
2022-12-29T14:44:04.089Z,7.68
2022-12-29T14:46:50.433Z,7.69
2022-12-29T14:49:20.250Z,7.66
2022-12-29T14:51:47.551Z,7.68
2022-12-29T14:54:34.420Z,7.63
2022-12-29T14:57:06.322Z,7.61
2022-12-29T14:59:34.526Z,7.66
2022-12-29T15:02:04.989Z,7.65
2022-12-29T15:04:33.453Z,7.63
2022-12-29T15:07:01.029Z,7.66
2022-12-29T15:09:37.274Z,7.63
2022-12-29T15:12:16.424Z,7.63
2022-12-29T15:14:54.617Z,7.61
2022-12-29T15:17:27.460Z,7.61
2022-12-29T15:19:54.938Z,7.55
2022-12-29T15:22:22.088Z,7.54
2022-12-29T15:24:53.199Z,7.52
2022-12-29T15:27:23.466Z,7.54
2022-12-29T15:30:00.336Z,7.53
2022-12-29T15:32:28.465Z,7.52
2022-12-29T15:34:56.779Z,7.63
2022-12-29T15:37:34.712Z,7.69
2022-12-29T15:40:01.238Z,7.68
2022-12-29T15:42:33.530Z,7.77
2022-12-29T15:45:10.130Z,7.78
2022-12-29T15:47:40.743Z,7.79
2022-12-29T15:50:24.202Z,7.84
2022-12-29T15:52:51.342Z,7.96
2022-12-29T15:55:35.578Z,8.00
2022-12-29T15:58:04.388Z,8.03
2022-12-29T16:00:38.181Z,8.05
2022-12-29T16:03:06.531Z,8.03
2022-12-29T16:05:35.080Z,8.06
2022-12-29T16:08:02.426Z,8.01
2022-12-29T16:10:31.162Z,8.04
2022-12-29T16:13:28.393Z,8.03
2022-12-29T16:15:59.881Z,8.02
2022-12-29T16:18:35.902Z,7.96
2022-12-29T16:21:06.617Z,7.99
2022-12-29T16:23:33.726Z,8.00
2022-12-29T16:26:00.812Z,8.06
2022-12-29T16:28:44.892Z,8.08
2022-12-29T16:31:26.605Z,8.10
2022-12-29T16:33:55.779Z,8.13
2022-12-29T16:36:26.875Z,8.17
2022-12-29T16:39:12.771Z,8.14
2022-12-29T16:41:39.502Z,8.23
2022-12-29T16:44:33.831Z,8.26
2022-12-29T16:47:19.412Z,8.31
2022-12-29T16:49:52.276Z,8.46
2022-12-29T16:52:22.627Z,8.57
2022-12-29T16:54:55.811Z,8.59
2022-12-29T16:57:27.076Z,8.62
2022-12-29T16:59:54.556Z,8.79
2022-12-29T17:02:23.514Z,8.88
2022-12-29T17:04:51.468Z,8.83
2022-12-29T17:07:28.366Z,8.63
2022-12-29T17:09:55.241Z,8.51
2022-12-29T17:12:25.245Z,8.42
2022-12-29T17:15:03.632Z,8.42
2022-12-29T17:17:50.194Z,8.50
2022-12-29T17:20:24.857Z,8.45
2022-12-29T17:22:54.691Z,8.37
2022-12-29T17:25:28.940Z,8.34
2022-12-29T17:28:03.243Z,8.38
2022-12-29T17:30:33.828Z,8.31
2022-12-29T17:33:03.582Z,8.11
2022-12-29T17:35:30.144Z,7.93
2022-12-29T17:37:56.736Z,7.88
2022-12-29T17:40:28.361Z,7.87
2022-12-29T17:42:57.770Z,7.90
2022-12-29T17:45:32.996Z,7.92
2022-12-29T17:48:02.898Z,7.90
2022-12-29T17:50:31.073Z,7.91
2022-12-29T17:53:01.963Z,7.91
2022-12-29T17:55:34.748Z,7.89
2022-12-29T17:58:15.977Z,7.90
2022-12-29T18:00:47.641Z,7.89
2022-12-29T18:03:19.765Z,7.80
2022-12-29T18:05:48.546Z,7.86
2022-12-29T18:08:18.663Z,7.81
2022-12-29T18:10:45.984Z,7.74
2022-12-29T18:13:20.853Z,7.83
2022-12-29T18:15:47.752Z,7.82
2022-12-29T18:18:19.367Z,7.78
2022-12-29T18:20:47.450Z,7.81
2022-12-29T18:23:40.336Z,7.84
2022-12-29T18:26:29.107Z,7.83
2022-12-29T18:28:57.829Z,7.82
2022-12-29T18:31:33.152Z,7.82
2022-12-29T18:34:28.086Z,7.80
2022-12-29T18:36:54.664Z,7.63
2022-12-29T18:39:24.184Z,7.70
2022-12-29T18:41:55.075Z,7.76
2022-12-29T18:44:22.979Z,7.66
2022-12-29T18:46:52.111Z,7.63
2022-12-29T18:49:19.359Z,7.58
2022-12-29T18:51:54.955Z,7.63
2022-12-29T18:54:51.301Z,7.74
2022-12-29T18:57:33.612Z,7.73
2022-12-29T19:00:02.466Z,7.64
2022-12-29T19:02:32.617Z,7.65
2022-12-29T19:05:06.878Z,7.64
2022-12-29T19:07:36.885Z,7.71
2022-12-29T19:10:05.115Z,7.86
2022-12-29T19:12:32.377Z,7.81
2022-12-29T19:14:58.943Z,7.76
2022-12-29T19:17:27.814Z,7.80
2022-12-29T19:19:54.301Z,7.78
2022-12-29T19:22:23.665Z,7.73
2022-12-29T19:24:53.694Z,7.63
2022-12-29T19:27:24.734Z,7.71
2022-12-29T19:29:51.310Z,7.68
2022-12-29T19:32:18.096Z,7.68
2022-12-29T19:34:45.818Z,7.63
2022-12-29T19:37:12.306Z,7.63
2022-12-29T19:39:39.008Z,7.49
2022-12-29T19:42:05.994Z,7.60
2022-12-29T19:44:32.508Z,7.55
2022-12-29T19:46:59.135Z,7.74
2022-12-29T19:49:25.732Z,7.65
2022-12-29T19:51:53.629Z,7.57
2022-12-29T19:54:20.151Z,7.65
2022-12-29T19:56:46.670Z,7.65
2022-12-29T19:59:13.525Z,7.68
2022-12-29T20:01:40.135Z,7.67
2022-12-29T20:04:06.944Z,7.65
2022-12-29T20:06:33.588Z,7.67
2022-12-29T20:09:02.474Z,7.66
2022-12-29T20:11:29.081Z,7.68
2022-12-29T20:13:55.921Z,7.63
2022-12-29T20:16:22.720Z,7.65
2022-12-29T20:18:49.587Z,7.63
2022-12-29T20:21:22.149Z,7.61
2022-12-29T20:23:49.915Z,7.56
2022-12-29T20:26:20.334Z,7.51
2022-12-29T20:28:47.472Z,7.44
2022-12-29T20:31:26.726Z,7.43
2022-12-29T20:33:53.824Z,7.37
2022-12-29T20:36:22.926Z,7.37
2022-12-29T20:38:50.474Z,7.36
2022-12-29T20:41:17.691Z,7.43
2022-12-29T20:43:44.829Z,7.45
2022-12-29T20:46:18.065Z,7.48
2022-12-29T20:48:44.820Z,7.51
2022-12-29T20:51:11.708Z,7.56
2022-12-29T20:53:39.154Z,7.53
2022-12-29T20:56:10.035Z,7.56
2022-12-29T20:58:52.505Z,7.47
2022-12-29T21:01:25.398Z,7.43
2022-12-29T21:03:52.344Z,7.57
2022-12-29T21:06:20.099Z,7.54
2022-12-29T21:08:51.078Z,7.50
2022-12-29T21:11:18.433Z,7.43
2022-12-29T21:13:45.283Z,7.57
2022-12-29T21:16:14.042Z,7.53
2022-12-29T21:18:40.850Z,7.66
2022-12-29T21:21:10.991Z,7.69
2022-12-29T21:23:39.144Z,7.69
2022-12-29T21:26:15.661Z,7.58
2022-12-29T21:28:43.561Z,7.65
2022-12-29T21:31:17.332Z,7.78
2022-12-29T21:33:43.989Z,7.83
2022-12-29T21:36:10.638Z,7.78
2022-12-29T21:38:37.140Z,7.64
2022-12-29T21:41:08.434Z,7.72
2022-12-29T21:43:35.548Z,7.85
2022-12-29T21:46:02.529Z,7.80
2022-12-29T21:48:30.183Z,7.78
2022-12-29T21:51:30.366Z,7.81
2022-12-29T21:54:19.689Z,7.76
2022-12-29T21:56:47.777Z,7.93
2022-12-29T21:59:45.020Z,7.99
2022-12-29T22:02:44.161Z,7.97
2022-12-29T22:05:33.255Z,7.99
2022-12-29T22:08:18.897Z,8.14
2022-12-29T22:11:05.788Z,8.14
2022-12-29T22:13:34.672Z,8.10
2022-12-29T22:16:08.390Z,8.07
2022-12-29T22:18:35.018Z,8.11
2022-12-29T22:21:06.660Z,8.23
2022-12-29T22:23:33.407Z,8.14
2022-12-29T22:26:05.154Z,8.09
2022-12-29T22:28:31.897Z,8.07
2022-12-29T22:30:58.529Z,8.05
2022-12-29T22:33:25.109Z,8.24
2022-12-29T22:35:51.729Z,8.25
2022-12-29T22:38:18.261Z,8.24
2022-12-29T22:40:44.740Z,8.24
2022-12-29T22:43:13.250Z,8.15
2022-12-29T22:45:41.060Z,8.22
2022-12-29T22:48:08.676Z,8.26
2022-12-29T22:50:35.245Z,8.29
2022-12-29T22:53:01.744Z,8.13
2022-12-29T22:55:28.256Z,8.08
2022-12-29T22:57:54.871Z,8.04
2022-12-29T23:00:21.387Z,8.14
2022-12-29T23:02:48.046Z,8.07
2022-12-29T23:05:14.860Z,8.09
2022-12-29T23:07:41.454Z,8.10
2022-12-29T23:10:08.435Z,8.08
2022-12-29T23:12:35.003Z,8.03
2022-12-29T23:15:01.623Z,8.09
2022-12-29T23:17:28.131Z,7.99
2022-12-29T23:19:54.667Z,7.91
2022-12-29T23:22:22.947Z,7.84
2022-12-29T23:24:49.482Z,7.87
2022-12-29T23:27:16.116Z,7.85
2022-12-29T23:29:42.601Z,7.78
2022-12-29T23:32:09.192Z,7.75
2022-12-29T23:34:35.736Z,7.63
2022-12-29T23:37:02.236Z,7.61
2022-12-29T23:39:29.465Z,7.63
2022-12-29T23:41:56.202Z,7.51
2022-12-29T23:44:22.777Z,7.49
2022-12-29T23:46:49.423Z,7.48
2022-12-29T23:49:16.092Z,7.47
2022-12-29T23:51:43.444Z,7.31
2022-12-29T23:54:09.997Z,7.44
2022-12-29T23:56:36.657Z,7.23
2022-12-29T23:59:05.068Z,7.28
